createdAt,value
2022-10-19T00:03:42.140Z,12.46
2022-10-19T00:07:43.662Z,12.43
2022-10-19T00:11:48.539Z,12.42
2022-10-19T00:15:50.015Z,12.38
2022-10-19T00:19:51.464Z,12.34
2022-10-19T00:23:53.211Z,12.27
2022-10-19T00:27:54.811Z,12.21
2022-10-19T00:31:56.396Z,12.11
2022-10-19T00:35:58.041Z,12.06
2022-10-19T00:39:59.610Z,11.93
2022-10-19T00:44:11.661Z,11.82
2022-10-19T00:48:15.388Z,11.67
2022-10-19T00:52:20.905Z,11.58
2022-10-19T00:56:23.134Z,11.50
2022-10-19T01:00:24.863Z,11.39
2022-10-19T01:04:27.897Z,11.32
2022-10-19T01:08:30.265Z,11.22
2022-10-19T01:13:06.772Z,11.15
2022-10-19T01:17:23.252Z,11.07
2022-10-19T01:21:28.713Z,11.02
2022-10-19T01:25:49.013Z,10.95
2022-10-19T01:30:13.026Z,10.85
2022-10-19T01:34:23.138Z,10.78
2022-10-19T01:38:40.591Z,10.68
2022-10-19T01:43:02.683Z,10.59
2022-10-19T01:47:09.922Z,10.49
2022-10-19T01:51:19.649Z,10.37
2022-10-19T01:55:22.684Z,10.32
2022-10-19T01:59:26.290Z,10.24
2022-10-19T02:03:28.517Z,10.22
2022-10-19T02:07:30.687Z,10.30
2022-10-19T02:11:33.451Z,10.46
2022-10-19T02:15:40.984Z,10.63
2022-10-19T02:19:43.260Z,10.71
2022-10-19T02:23:48.356Z,10.72
2022-10-19T02:27:52.445Z,10.70
2022-10-19T02:31:54.501Z,10.60
2022-10-19T02:35:57.459Z,10.53
2022-10-19T02:39:59.147Z,10.47
2022-10-19T02:44:10.233Z,10.52
2022-10-19T02:48:17.533Z,10.59
2022-10-19T02:52:19.311Z,10.66
2022-10-19T02:56:21.048Z,10.70
2022-10-19T03:00:22.831Z,10.69
2022-10-19T03:04:24.409Z,10.72
2022-10-19T03:08:26.107Z,10.73
2022-10-19T03:12:27.647Z,10.76
2022-10-19T03:16:29.174Z,10.81
2022-10-19T03:20:30.703Z,10.85
2022-10-19T03:24:33.082Z,10.83
2022-10-19T03:28:34.788Z,10.88
2022-10-19T03:32:36.404Z,10.96
2022-10-19T03:36:39.581Z,10.96
2022-10-19T03:40:41.064Z,10.98
2022-10-19T03:44:42.524Z,10.97
2022-10-19T03:48:44.236Z,10.99
2022-10-19T03:52:45.742Z,11.04
2022-10-19T03:56:47.341Z,11.08
2022-10-19T04:00:48.807Z,11.09
2022-10-19T04:04:50.442Z,11.11
2022-10-19T04:08:51.914Z,11.12
2022-10-19T04:12:53.980Z,11.08
2022-10-19T04:16:55.696Z,11.07
2022-10-19T04:20:58.174Z,10.99
2022-10-19T04:24:59.725Z,10.93
2022-10-19T04:29:01.975Z,10.87
2022-10-19T04:33:03.766Z,10.86
2022-10-19T04:37:05.469Z,10.87
2022-10-19T04:41:10.135Z,10.89
2022-10-19T04:45:11.572Z,10.93
2022-10-19T04:49:16.379Z,10.88
2022-10-19T04:53:21.241Z,10.86
2022-10-19T04:57:22.833Z,10.86
2022-10-19T05:01:26.053Z,10.92
2022-10-19T05:05:27.608Z,10.93
2022-10-19T05:09:29.260Z,10.96
2022-10-19T05:13:32.894Z,10.96
2022-10-19T05:17:34.915Z,10.92
2022-10-19T05:21:36.866Z,10.95
2022-10-19T05:25:38.358Z,10.95
2022-10-19T05:29:39.962Z,10.88
2022-10-19T05:33:42.586Z,10.81
2022-10-19T05:37:44.060Z,10.82
2022-10-19T05:41:47.353Z,10.84
2022-10-19T05:45:48.887Z,10.86
2022-10-19T05:49:50.515Z,10.85
2022-10-19T05:53:54.631Z,10.85
2022-10-19T05:57:56.429Z,10.80
2022-10-19T06:01:57.985Z,10.80
2022-10-19T06:06:03.041Z,10.86
2022-10-19T06:10:04.982Z,10.93
2022-10-19T06:14:11.657Z,11.00
2022-10-19T06:18:13.393Z,11.07
2022-10-19T06:23:05.681Z,11.18
2022-10-19T06:27:57.214Z,11.22
2022-10-19T06:32:00.158Z,11.20
2022-10-19T06:36:35.527Z,12.17
2022-10-19T06:40:37.173Z,12.25
2022-10-19T06:44:42.381Z,12.02
2022-10-19T06:48:44.085Z,12.08
2022-10-19T06:52:46.048Z,12.32
2022-10-19T06:57:57.180Z,12.85
2022-10-19T07:01:58.769Z,12.79
2022-10-19T07:06:02.624Z,12.68
2022-10-19T07:10:04.697Z,12.72
2022-10-19T07:14:06.309Z,12.64
2022-10-19T07:18:07.898Z,12.67
2022-10-19T07:22:09.374Z,12.76
2022-10-19T07:26:12.608Z,12.93
2022-10-19T07:30:14.102Z,13.04
2022-10-19T07:34:17.106Z,13.13
2022-10-19T07:38:18.812Z,13.23
2022-10-19T07:42:23.410Z,13.17
2022-10-19T07:46:29.167Z,13.14
2022-10-19T07:50:30.676Z,13.23
2022-10-19T07:54:32.234Z,13.29
2022-10-19T07:58:34.323Z,13.36
2022-10-19T08:02:54.692Z,13.34
2022-10-19T08:06:57.363Z,13.19
2022-10-19T08:11:06.782Z,13.12
2022-10-19T08:15:08.627Z,13.15
2022-10-19T08:19:12.764Z,13.17
2022-10-19T08:23:14.324Z,13.25
2022-10-19T08:27:16.733Z,13.33
2022-10-19T08:31:21.181Z,13.33
2022-10-19T08:35:22.779Z,13.45
2022-10-19T08:39:24.365Z,13.40
2022-10-19T08:43:35.118Z,13.56
2022-10-19T08:47:39.883Z,13.50
2022-10-19T08:51:45.100Z,13.62
2022-10-19T08:56:03.754Z,13.71
2022-10-19T09:00:35.178Z,13.85
2022-10-19T09:04:40.069Z,14.06
2022-10-19T09:08:41.630Z,14.04
2022-10-19T09:13:14.954Z,13.92
2022-10-19T09:17:17.141Z,14.23
2022-10-19T09:21:30.903Z,14.55
2022-10-19T09:25:39.439Z,14.93
2022-10-19T09:29:55.816Z,15.36
2022-10-19T09:34:01.446Z,15.34
2022-10-19T09:38:06.679Z,15.85
2022-10-19T09:42:17.985Z,16.79
2022-10-19T09:51:02.375Z,19.70
2022-10-19T09:55:13.080Z,18.76
2022-10-19T09:59:23.024Z,17.69
2022-10-19T10:03:53.822Z,16.59
2022-10-19T10:07:57.990Z,15.98
2022-10-19T10:17:59.769Z,16.79
2022-10-19T10:22:03.867Z,16.82
2022-10-19T10:26:30.324Z,16.56
2022-10-19T10:31:01.630Z,16.06
2022-10-19T10:35:07.714Z,15.95
2022-10-19T10:39:16.697Z,15.66
2022-10-19T10:43:56.720Z,15.15
2022-10-19T10:48:30.352Z,14.74
2022-10-19T10:52:32.494Z,14.58
2022-10-19T10:57:12.826Z,14.57
2022-10-19T11:01:20.050Z,14.65
2022-10-19T11:05:59.038Z,14.85
2022-10-19T11:10:51.150Z,15.16
2022-10-19T11:15:02.485Z,15.71
2022-10-19T11:19:24.409Z,15.39
2022-10-19T11:24:07.808Z,15.12
2022-10-19T11:28:42.878Z,14.90
2022-10-19T11:33:34.348Z,14.51
2022-10-19T11:43:15.763Z,14.41
2022-10-19T11:48:02.128Z,14.55
2022-10-19T11:52:29.924Z,14.57
2022-10-19T11:57:01.860Z,14.50
2022-10-19T12:01:23.941Z,14.55
2022-10-19T12:05:41.138Z,14.85
2022-10-19T12:10:04.163Z,15.04
2022-10-19T12:20:18.907Z,15.66
2022-10-19T12:24:25.333Z,15.80
2022-10-19T12:28:32.916Z,15.67
2022-10-19T12:32:51.989Z,15.47
2022-10-19T12:37:12.694Z,15.41
2022-10-19T12:41:33.010Z,15.03
2022-10-19T12:45:39.456Z,14.88
2022-10-19T12:49:49.606Z,14.81
2022-10-19T12:53:51.307Z,14.79
2022-10-19T12:58:01.371Z,14.51
2022-10-19T13:02:06.392Z,14.38
2022-10-19T13:06:15.572Z,14.35
2022-10-19T13:10:21.539Z,13.75
2022-10-19T13:14:48.804Z,13.78
2022-10-19T13:19:40.425Z,13.68
2022-10-19T13:24:24.479Z,13.94
2022-10-19T13:28:29.723Z,14.07
2022-10-19T13:33:21.163Z,14.06
2022-10-19T13:37:23.129Z,14.06
2022-10-19T13:41:46.636Z,13.91
2022-10-19T13:46:18.376Z,13.93
2022-10-19T13:50:34.021Z,13.94
2022-10-19T13:55:19.911Z,13.90
2022-10-19T13:59:50.416Z,13.85
2022-10-19T14:04:17.326Z,13.68
2022-10-19T14:08:25.307Z,13.68
2022-10-19T14:12:30.076Z,13.61
2022-10-19T14:16:31.837Z,13.76
2022-10-19T14:20:40.659Z,13.86
2022-10-19T14:25:18.164Z,14.11
2022-10-19T14:30:10.747Z,14.11
2022-10-19T14:34:14.759Z,14.05
2022-10-19T14:38:26.417Z,13.74
2022-10-19T14:42:45.716Z,13.68
2022-10-19T14:46:48.440Z,13.61
2022-10-19T14:50:56.163Z,13.46
2022-10-19T14:54:59.988Z,13.48
2022-10-19T14:59:52.381Z,13.37
2022-10-19T15:04:44.148Z,13.32
2022-10-19T15:09:47.359Z,13.18
2022-10-19T15:14:17.581Z,13.11
2022-10-19T15:18:44.030Z,13.06
2022-10-19T15:22:44.680Z,13.00
2022-10-19T15:27:22.808Z,13.00
2022-10-19T15:31:27.837Z,12.98
2022-10-19T15:35:32.344Z,12.92
2022-10-19T15:39:41.015Z,12.79
2022-10-19T15:43:49.662Z,12.76
2022-10-19T15:48:09.959Z,12.70
2022-10-19T15:52:17.341Z,12.57
2022-10-19T15:56:20.935Z,12.49
2022-10-19T16:00:22.625Z,12.49
2022-10-19T16:05:14.117Z,12.48
2022-10-19T16:09:20.616Z,12.43
2022-10-19T16:13:29.632Z,12.34
2022-10-19T16:17:32.435Z,12.31
2022-10-19T16:21:45.636Z,12.35
2022-10-19T16:25:49.821Z,12.41
2022-10-19T16:29:51.549Z,12.25
2022-10-19T16:33:53.243Z,12.06
2022-10-19T16:37:54.823Z,12.06
2022-10-19T16:41:56.449Z,11.94
2022-10-19T16:45:58.139Z,11.94
2022-10-19T16:50:20.330Z,11.92
2022-10-19T16:54:26.740Z,11.89
2022-10-19T16:58:28.535Z,11.92
2022-10-19T17:02:30.131Z,11.75
2022-10-19T17:06:33.897Z,11.56
2022-10-19T17:10:35.557Z,11.44
2022-10-19T17:14:39.536Z,11.27
2022-10-19T17:18:42.987Z,11.08
2022-10-19T17:22:44.770Z,10.88
2022-10-19T17:26:46.272Z,10.63
2022-10-19T17:30:48.996Z,10.53
2022-10-19T17:34:50.595Z,10.46
2022-10-19T17:38:53.546Z,10.35
2022-10-19T17:42:55.066Z,10.19
2022-10-19T17:46:56.939Z,10.05
2022-10-19T17:51:03.828Z,9.90
2022-10-19T17:55:12.137Z,9.76
2022-10-19T17:59:14.349Z,9.58
2022-10-19T18:03:24.782Z,9.42
2022-10-19T18:07:35.311Z,9.32
2022-10-19T18:11:41.049Z,9.20
2022-10-19T18:15:42.661Z,9.10
2022-10-19T18:19:47.606Z,9.00
2022-10-19T18:23:49.392Z,8.92
2022-10-19T18:27:58.851Z,8.83
2022-10-19T18:32:01.398Z,8.74
2022-10-19T18:36:03.620Z,8.61
2022-10-19T18:40:05.771Z,8.53
2022-10-19T18:44:08.814Z,8.47
2022-10-19T18:48:11.555Z,8.39
2022-10-19T18:52:14.255Z,8.28
2022-10-19T18:56:18.675Z,8.20
2022-10-19T19:00:20.356Z,8.11
2022-10-19T19:04:22.605Z,8.05
2022-10-19T19:08:24.159Z,7.96
2022-10-19T19:12:27.095Z,7.91
2022-10-19T19:16:32.332Z,7.89
2022-10-19T19:20:34.948Z,7.83
2022-10-19T19:24:36.822Z,7.78
2022-10-19T19:28:41.495Z,7.75
2022-10-19T19:32:44.089Z,7.66
2022-10-19T19:36:49.093Z,7.60
2022-10-19T19:40:50.819Z,7.62
2022-10-19T19:44:52.558Z,7.64
2022-10-19T19:48:59.968Z,7.62
2022-10-19T19:53:04.934Z,7.59
2022-10-19T19:57:07.748Z,7.54
2022-10-19T20:01:15.477Z,7.55
2022-10-19T20:05:17.239Z,7.51
2022-10-19T20:09:18.693Z,7.50
2022-10-19T20:13:20.135Z,7.45
2022-10-19T20:17:23.756Z,7.43
2022-10-19T20:21:27.558Z,7.44
2022-10-19T20:25:29.090Z,7.30
2022-10-19T20:29:30.776Z,7.17
2022-10-19T20:33:34.219Z,7.08
2022-10-19T20:37:36.000Z,7.09
2022-10-19T20:41:37.768Z,7.10
2022-10-19T20:45:42.292Z,7.06
2022-10-19T20:49:43.828Z,7.07
2022-10-19T20:53:47.684Z,7.09
2022-10-19T20:58:00.679Z,7.12
2022-10-19T21:02:02.240Z,7.02
2022-10-19T21:06:07.961Z,6.91
2022-10-19T21:10:09.604Z,6.90
2022-10-19T21:14:17.577Z,6.83
2022-10-19T21:18:20.064Z,6.73
2022-10-19T21:22:21.691Z,6.72
2022-10-19T21:26:25.863Z,6.55
2022-10-19T21:30:27.782Z,6.45
2022-10-19T21:34:30.921Z,6.41
2022-10-19T21:38:39.399Z,6.39
2022-10-19T21:42:41.217Z,6.44
2022-10-19T21:46:43.654Z,6.53
2022-10-19T21:50:45.237Z,6.48
2022-10-19T21:54:47.026Z,6.50
2022-10-19T21:58:51.409Z,6.52
2022-10-19T22:02:55.546Z,6.49
2022-10-19T22:06:59.474Z,6.49
2022-10-19T22:11:09.107Z,6.55
2022-10-19T22:15:10.997Z,6.51
2022-10-19T22:19:13.274Z,6.39
2022-10-19T22:23:14.839Z,6.39
2022-10-19T22:27:16.541Z,6.47
2022-10-19T22:31:18.651Z,6.38
2022-10-19T22:35:20.287Z,6.17
2022-10-19T22:39:23.189Z,6.06
2022-10-19T22:43:27.051Z,6.11
2022-10-19T22:47:30.461Z,6.09
2022-10-19T22:51:32.053Z,5.98
2022-10-19T22:55:33.679Z,5.83
2022-10-19T22:59:35.560Z,5.74
2022-10-19T23:03:39.250Z,5.72
2022-10-19T23:07:40.777Z,5.68
2022-10-19T23:11:42.254Z,5.65
2022-10-19T23:15:44.775Z,5.61
2022-10-19T23:19:46.375Z,5.55
2022-10-19T23:23:48.003Z,5.46
2022-10-19T23:27:49.515Z,5.42
2022-10-19T23:31:51.176Z,5.39
2022-10-19T23:35:52.721Z,5.40
2022-10-19T23:39:54.371Z,5.37
2022-10-19T23:43:55.812Z,5.31
2022-10-19T23:47:57.264Z,5.31
2022-10-19T23:51:58.701Z,5.27
2022-10-19T23:56:10.438Z,5.26
